sensor_id;sensor_type;location;lat;lon;timestamp;P1;durP1;ratioP1;P2;durP2;ratioP2
71869;SDS011;59739;47.696;11.746;2022-09-20T00:03:37;1.60;;;1.08;;
71869;SDS011;59739;47.696;11.746;2022-09-20T00:06:07;1.63;;;0.80;;
71869;SDS011;59739;47.696;11.746;2022-09-20T00:08:35;1.20;;;0.75;;
71869;SDS011;59739;47.696;11.746;2022-09-20T00:11:09;2.80;;;0.90;;
71869;SDS011;59739;47.696;11.746;2022-09-20T00:13:39;1.17;;;0.70;;
71869;SDS011;59739;47.696;11.746;2022-09-20T00:16:08;1.55;;;0.80;;
71869;SDS011;59739;47.696;11.746;2022-09-20T00:18:37;1.00;;;0.88;;
71869;SDS011;59739;47.696;11.746;2022-09-20T00:21:04;0.95;;;0.85;;
71869;SDS011;59739;47.696;11.746;2022-09-20T00:23:30;1.67;;;1.10;;
71869;SDS011;59739;47.696;11.746;2022-09-20T00:26:00;1.67;;;1.00;;
71869;SDS011;59739;47.696;11.746;2022-09-20T00:28:28;1.13;;;0.80;;
71869;SDS011;59739;47.696;11.746;2022-09-20T00:30:55;1.00;;;0.77;;
71869;SDS011;59739;47.696;11.746;2022-09-20T00:33:22;1.60;;;0.90;;
71869;SDS011;59739;47.696;11.746;2022-09-20T00:36:09;1.90;;;1.00;;
71869;SDS011;59739;47.696;11.746;2022-09-20T00:38:35;1.45;;;0.90;;
71869;SDS011;59739;47.696;11.746;2022-09-20T00:41:01;2.25;;;0.98;;
71869;SDS011;59739;47.696;11.746;2022-09-20T00:43:38;1.33;;;0.90;;
71869;SDS011;59739;47.696;11.746;2022-09-20T00:46:20;0.98;;;0.60;;
71869;SDS011;59739;47.696;11.746;2022-09-20T00:49:12;1.02;;;0.90;;
71869;SDS011;59739;47.696;11.746;2022-09-20T00:51:44;2.17;;;0.90;;
71869;SDS011;59739;47.696;11.746;2022-09-20T00:54:16;0.85;;;0.85;;
71869;SDS011;59739;47.696;11.746;2022-09-20T00:56:44;2.17;;;0.90;;
71869;SDS011;59739;47.696;11.746;2022-09-20T00:59:14;0.65;;;0.60;;
71869;SDS011;59739;47.696;11.746;2022-09-20T01:02:23;2.95;;;0.75;;
71869;SDS011;59739;47.696;11.746;2022-09-20T01:04:51;1.33;;;0.70;;
71869;SDS011;59739;47.696;11.746;2022-09-20T01:07:19;1.38;;;0.60;;
71869;SDS011;59739;47.696;11.746;2022-09-20T01:09:49;1.10;;;0.88;;
71869;SDS011;59739;47.696;11.746;2022-09-20T01:12:20;1.27;;;0.80;;
71869;SDS011;59739;47.696;11.746;2022-09-20T01:14:49;0.60;;;0.60;;
71869;SDS011;59739;47.696;11.746;2022-09-20T01:17:16;0.90;;;0.80;;
71869;SDS011;59739;47.696;11.746;2022-09-20T01:19:49;1.20;;;0.70;;
71869;SDS011;59739;47.696;11.746;2022-09-20T01:28:35;0.50;;;0.50;;
71869;SDS011;59739;47.696;11.746;2022-09-20T01:31:07;1.08;;;0.80;;
71869;SDS011;59739;47.696;11.746;2022-09-20T01:36:56;1.77;;;0.90;;
71869;SDS011;59739;47.696;11.746;2022-09-20T01:39:44;0.95;;;0.68;;
71869;SDS011;59739;47.696;11.746;2022-09-20T01:42:22;2.13;;;0.70;;
71869;SDS011;59739;47.696;11.746;2022-09-20T01:45:01;1.92;;;0.90;;
71869;SDS011;59739;47.696;11.746;2022-09-20T01:47:56;1.45;;;0.63;;
71869;SDS011;59739;47.696;11.746;2022-09-20T01:50:33;1.10;;;0.60;;
71869;SDS011;59739;47.696;11.746;2022-09-20T02:02:18;1.10;;;0.70;;
71869;SDS011;59739;47.696;11.746;2022-09-20T02:04:58;1.00;;;0.68;;
71869;SDS011;59739;47.696;11.746;2022-09-20T02:10:57;1.77;;;0.75;;
71869;SDS011;59739;47.696;11.746;2022-09-20T02:22:08;1.38;;;0.70;;
71869;SDS011;59739;47.696;11.746;2022-09-20T02:25:19;0.75;;;0.57;;
71869;SDS011;59739;47.696;11.746;2022-09-20T02:37:56;0.60;;;0.60;;
71869;SDS011;59739;47.696;11.746;2022-09-20T02:43:42;1.00;;;0.80;;
71869;SDS011;59739;47.696;11.746;2022-09-20T02:55:49;1.25;;;0.70;;
71869;SDS011;59739;47.696;11.746;2022-09-20T03:06:42;1.57;;;0.77;;
71869;SDS011;59739;47.696;11.746;2022-09-20T03:09:33;2.30;;;0.75;;
71869;SDS011;59739;47.696;11.746;2022-09-20T03:12:25;2.15;;;0.80;;
71869;SDS011;59739;47.696;11.746;2022-09-20T03:18:10;1.15;;;0.82;;
71869;SDS011;59739;47.696;11.746;2022-09-20T03:20:51;2.05;;;0.90;;
71869;SDS011;59739;47.696;11.746;2022-09-20T03:23:55;0.80;;;0.80;;
71869;SDS011;59739;47.696;11.746;2022-09-20T03:29:53;0.52;;;0.52;;
71869;SDS011;59739;47.696;11.746;2022-09-20T03:32:55;0.55;;;0.55;;
71869;SDS011;59739;47.696;11.746;2022-09-20T03:35:50;1.17;;;0.80;;
71869;SDS011;59739;47.696;11.746;2022-09-20T03:41:56;0.80;;;0.80;;
71869;SDS011;59739;47.696;11.746;2022-09-20T03:56:38;1.43;;;1.13;;
71869;SDS011;59739;47.696;11.746;2022-09-20T03:59:47;10.27;;;4.93;;
71869;SDS011;59739;47.696;11.746;2022-09-20T04:02:39;2.65;;;1.85;;
71869;SDS011;59739;47.696;11.746;2022-09-20T04:08:36;3.33;;;2.00;;
71869;SDS011;59739;47.696;11.746;2022-09-20T04:20:42;2.17;;;1.10;;
71869;SDS011;59739;47.696;11.746;2022-09-20T04:26:12;1.75;;;1.30;;
71869;SDS011;59739;47.696;11.746;2022-09-20T04:28:45;5.65;;;3.33;;
71869;SDS011;59739;47.696;11.746;2022-09-20T04:31:46;2.53;;;1.67;;
71869;SDS011;59739;47.696;11.746;2022-09-20T04:34:38;3.13;;;1.65;;
71869;SDS011;59739;47.696;11.746;2022-09-20T04:37:33;2.97;;;1.30;;
71869;SDS011;59739;47.696;11.746;2022-09-20T04:40:13;2.15;;;1.30;;
71869;SDS011;59739;47.696;11.746;2022-09-20T04:54:44;2.95;;;1.20;;
71869;SDS011;59739;47.696;11.746;2022-09-20T05:02:37;0.90;;;0.90;;
71869;SDS011;59739;47.696;11.746;2022-09-20T05:20:41;2.30;;;1.10;;
71869;SDS011;59739;47.696;11.746;2022-09-20T05:26:23;2.10;;;1.30;;
71869;SDS011;59739;47.696;11.746;2022-09-20T05:29:04;2.13;;;1.38;;
71869;SDS011;59739;47.696;11.746;2022-09-20T05:31:50;3.75;;;1.60;;
71869;SDS011;59739;47.696;11.746;2022-09-20T05:35:11;2.22;;;1.60;;
71869;SDS011;59739;47.696;11.746;2022-09-20T05:40:26;1.60;;;1.48;;
71869;SDS011;59739;47.696;11.746;2022-09-20T05:43:12;7.05;;;1.67;;
71869;SDS011;59739;47.696;11.746;2022-09-20T05:45:57;1.95;;;1.17;;
71869;SDS011;59739;47.696;11.746;2022-09-20T05:54:38;1.83;;;1.20;;
71869;SDS011;59739;47.696;11.746;2022-09-20T05:57:38;2.10;;;1.20;;
71869;SDS011;59739;47.696;11.746;2022-09-20T06:00:27;1.73;;;1.25;;
71869;SDS011;59739;47.696;11.746;2022-09-20T06:03:12;1.70;;;1.08;;
71869;SDS011;59739;47.696;11.746;2022-09-20T06:14:57;1.92;;;1.02;;
71869;SDS011;59739;47.696;11.746;2022-09-20T06:23:40;3.83;;;1.40;;
71869;SDS011;59739;47.696;11.746;2022-09-20T06:26:09;2.67;;;1.40;;
71869;SDS011;59739;47.696;11.746;2022-09-20T06:28:45;2.53;;;1.77;;
71869;SDS011;59739;47.696;11.746;2022-09-20T06:31:22;1.73;;;1.38;;
71869;SDS011;59739;47.696;11.746;2022-09-20T06:33:52;1.70;;;1.17;;
71869;SDS011;59739;47.696;11.746;2022-09-20T06:36:24;1.55;;;1.20;;
71869;SDS011;59739;47.696;11.746;2022-09-20T06:44:56;3.17;;;1.20;;
71869;SDS011;59739;47.696;11.746;2022-09-20T06:47:23;2.10;;;1.15;;
71869;SDS011;59739;47.696;11.746;2022-09-20T06:49:50;1.80;;;1.20;;
71869;SDS011;59739;47.696;11.746;2022-09-20T06:52:17;2.88;;;1.20;;
71869;SDS011;59739;47.696;11.746;2022-09-20T06:54:47;1.88;;;1.40;;
71869;SDS011;59739;47.696;11.746;2022-09-20T06:57:18;3.20;;;1.17;;
71869;SDS011;59739;47.696;11.746;2022-09-20T06:59:57;1.35;;;1.17;;
71869;SDS011;59739;47.696;11.746;2022-09-20T07:02:23;2.35;;;1.38;;
71869;SDS011;59739;47.696;11.746;2022-09-20T07:04:49;2.58;;;1.80;;
71869;SDS011;59739;47.696;11.746;2022-09-20T07:07:17;1.92;;;1.67;;
71869;SDS011;59739;47.696;11.746;2022-09-20T07:09:44;5.80;;;1.77;;
71869;SDS011;59739;47.696;11.746;2022-09-20T07:12:10;3.28;;;1.65;;
71869;SDS011;59739;47.696;11.746;2022-09-20T07:14:36;3.47;;;1.70;;
71869;SDS011;59739;47.696;11.746;2022-09-20T07:17:03;2.35;;;1.42;;
71869;SDS011;59739;47.696;11.746;2022-09-20T07:19:29;3.03;;;1.40;;
71869;SDS011;59739;47.696;11.746;2022-09-20T07:21:55;4.22;;;1.95;;
71869;SDS011;59739;47.696;11.746;2022-09-20T07:24:21;4.15;;;2.17;;
71869;SDS011;59739;47.696;11.746;2022-09-20T07:26:55;1.70;;;1.20;;
71869;SDS011;59739;47.696;11.746;2022-09-20T07:29:25;1.23;;;1.00;;
71869;SDS011;59739;47.696;11.746;2022-09-20T07:31:52;2.90;;;1.05;;
71869;SDS011;59739;47.696;11.746;2022-09-20T07:34:20;3.28;;;1.30;;
71869;SDS011;59739;47.696;11.746;2022-09-20T07:36:46;3.63;;;1.20;;
71869;SDS011;59739;47.696;11.746;2022-09-20T07:39:13;2.70;;;1.40;;
71869;SDS011;59739;47.696;11.746;2022-09-20T07:41:40;2.35;;;1.20;;
71869;SDS011;59739;47.696;11.746;2022-09-20T07:44:06;3.45;;;2.10;;
71869;SDS011;59739;47.696;11.746;2022-09-20T07:46:52;2.53;;;1.58;;
71869;SDS011;59739;47.696;11.746;2022-09-20T07:49:22;2.50;;;1.23;;
71869;SDS011;59739;47.696;11.746;2022-09-20T07:51:50;1.42;;;1.20;;
71869;SDS011;59739;47.696;11.746;2022-09-20T07:54:17;3.38;;;1.10;;
71869;SDS011;59739;47.696;11.746;2022-09-20T07:56:44;1.80;;;1.30;;
71869;SDS011;59739;47.696;11.746;2022-09-20T07:59:11;6.07;;;1.58;;
71869;SDS011;59739;47.696;11.746;2022-09-20T08:01:38;2.60;;;1.60;;
71869;SDS011;59739;47.696;11.746;2022-09-20T08:04:05;5.25;;;2.00;;
71869;SDS011;59739;47.696;11.746;2022-09-20T08:06:37;3.05;;;1.60;;
71869;SDS011;59739;47.696;11.746;2022-09-20T08:09:05;4.20;;;1.80;;
71869;SDS011;59739;47.696;11.746;2022-09-20T08:11:40;4.05;;;1.60;;
71869;SDS011;59739;47.696;11.746;2022-09-20T08:14:08;2.25;;;1.17;;
71869;SDS011;59739;47.696;11.746;2022-09-20T08:16:40;3.90;;;1.50;;
71869;SDS011;59739;47.696;11.746;2022-09-20T08:19:15;3.92;;;1.27;;
71869;SDS011;59739;47.696;11.746;2022-09-20T08:21:46;2.75;;;1.55;;
71869;SDS011;59739;47.696;11.746;2022-09-20T08:24:14;3.83;;;1.40;;
71869;SDS011;59739;47.696;11.746;2022-09-20T08:26:41;3.38;;;1.60;;
71869;SDS011;59739;47.696;11.746;2022-09-20T08:29:08;2.22;;;1.40;;
71869;SDS011;59739;47.696;11.746;2022-09-20T08:31:36;5.78;;;1.55;;
71869;SDS011;59739;47.696;11.746;2022-09-20T08:34:04;5.10;;;1.40;;
71869;SDS011;59739;47.696;11.746;2022-09-20T08:36:33;7.95;;;1.95;;
71869;SDS011;59739;47.696;11.746;2022-09-20T08:39:01;6.88;;;1.45;;
71869;SDS011;59739;47.696;11.746;2022-09-20T08:41:29;4.85;;;1.48;;
71869;SDS011;59739;47.696;11.746;2022-09-20T08:44:16;4.35;;;1.40;;
71869;SDS011;59739;47.696;11.746;2022-09-20T08:46:54;4.47;;;1.48;;
71869;SDS011;59739;47.696;11.746;2022-09-20T08:49:27;2.90;;;2.10;;
71869;SDS011;59739;47.696;11.746;2022-09-20T08:51:54;4.22;;;1.85;;
71869;SDS011;59739;47.696;11.746;2022-09-20T08:54:29;7.50;;;1.35;;
71869;SDS011;59739;47.696;11.746;2022-09-20T08:56:57;2.78;;;1.40;;
71869;SDS011;59739;47.696;11.746;2022-09-20T08:59:29;2.47;;;1.20;;
71869;SDS011;59739;47.696;11.746;2022-09-20T09:01:56;4.00;;;1.15;;
71869;SDS011;59739;47.696;11.746;2022-09-20T09:04:24;4.40;;;0.98;;
71869;SDS011;59739;47.696;11.746;2022-09-20T09:07:00;4.40;;;1.38;;
71869;SDS011;59739;47.696;11.746;2022-09-20T09:09:27;3.33;;;1.40;;
71869;SDS011;59739;47.696;11.746;2022-09-20T09:11:54;5.20;;;1.50;;
71869;SDS011;59739;47.696;11.746;2022-09-20T09:17:13;4.97;;;1.15;;
71869;SDS011;59739;47.696;11.746;2022-09-20T09:19:50;2.95;;;1.17;;
71869;SDS011;59739;47.696;11.746;2022-09-20T09:28:03;2.40;;;0.90;;
71869;SDS011;59739;47.696;11.746;2022-09-20T09:30:43;3.75;;;1.08;;
71869;SDS011;59739;47.696;11.746;2022-09-20T09:38:31;4.68;;;0.90;;
71869;SDS011;59739;47.696;11.746;2022-09-20T09:41:01;4.50;;;0.98;;
71869;SDS011;59739;47.696;11.746;2022-09-20T09:43:33;2.45;;;0.98;;
71869;SDS011;59739;47.696;11.746;2022-09-20T09:49:03;2.70;;;1.30;;
71869;SDS011;59739;47.696;11.746;2022-09-20T09:54:49;3.38;;;1.30;;
71869;SDS011;59739;47.696;11.746;2022-09-20T09:57:28;5.15;;;1.30;;
71869;SDS011;59739;47.696;11.746;2022-09-20T10:00:04;5.55;;;1.42;;
71869;SDS011;59739;47.696;11.746;2022-09-20T10:11:23;3.60;;;1.30;;
71869;SDS011;59739;47.696;11.746;2022-09-20T10:20:39;2.67;;;1.05;;
71869;SDS011;59739;47.696;11.746;2022-09-20T10:26:05;3.92;;;1.15;;
71869;SDS011;59739;47.696;11.746;2022-09-20T10:29:02;3.60;;;1.10;;
71869;SDS011;59739;47.696;11.746;2022-09-20T10:35:06;2.17;;;1.00;;
71869;SDS011;59739;47.696;11.746;2022-09-20T10:38:02;5.90;;;1.30;;
71869;SDS011;59739;47.696;11.746;2022-09-20T10:49:55;5.60;;;1.70;;
71869;SDS011;59739;47.696;11.746;2022-09-20T10:58:18;3.78;;;2.20;;
71869;SDS011;59739;47.696;11.746;2022-09-20T11:07:21;5.68;;;3.22;;
71869;SDS011;59739;47.696;11.746;2022-09-20T11:10:24;2.78;;;2.28;;
71869;SDS011;59739;47.696;11.746;2022-09-20T11:15:34;3.50;;;2.83;;
71869;SDS011;59739;47.696;11.746;2022-09-20T11:18:16;2.83;;;1.80;;
71869;SDS011;59739;47.696;11.746;2022-09-20T11:23:38;4.38;;;2.33;;
71869;SDS011;59739;47.696;11.746;2022-09-20T11:26:26;2.83;;;1.88;;
71869;SDS011;59739;47.696;11.746;2022-09-20T11:32:24;4.55;;;2.60;;
71869;SDS011;59739;47.696;11.746;2022-09-20T11:35:03;4.07;;;2.30;;
71869;SDS011;59739;47.696;11.746;2022-09-20T11:38:00;2.92;;;2.40;;
71869;SDS011;59739;47.696;11.746;2022-09-20T11:44:09;3.75;;;2.42;;
71869;SDS011;59739;47.696;11.746;2022-09-20T11:46:42;4.35;;;2.35;;
71869;SDS011;59739;47.696;11.746;2022-09-20T11:53:08;3.70;;;2.60;;
71869;SDS011;59739;47.696;11.746;2022-09-20T11:55:53;4.15;;;2.72;;
71869;SDS011;59739;47.696;11.746;2022-09-20T11:58:44;3.72;;;2.20;;
71869;SDS011;59739;47.696;11.746;2022-09-20T12:01:24;5.40;;;2.50;;
71869;SDS011;59739;47.696;11.746;2022-09-20T12:07:06;3.08;;;2.17;;
71869;SDS011;59739;47.696;11.746;2022-09-20T12:09:43;6.00;;;2.88;;
71869;SDS011;59739;47.696;11.746;2022-09-20T12:12:45;3.60;;;2.40;;
71869;SDS011;59739;47.696;11.746;2022-09-20T12:28:48;5.35;;;2.20;;
71869;SDS011;59739;47.696;11.746;2022-09-20T12:31:46;5.32;;;2.55;;
71869;SDS011;59739;47.696;11.746;2022-09-20T12:39:20;4.97;;;2.65;;
71869;SDS011;59739;47.696;11.746;2022-09-20T12:45:06;4.53;;;2.63;;
71869;SDS011;59739;47.696;11.746;2022-09-20T12:47:48;3.13;;;2.33;;
71869;SDS011;59739;47.696;11.746;2022-09-20T12:50:20;4.25;;;2.28;;
71869;SDS011;59739;47.696;11.746;2022-09-20T12:53:11;3.53;;;2.33;;
71869;SDS011;59739;47.696;11.746;2022-09-20T12:56:03;6.85;;;2.30;;
71869;SDS011;59739;47.696;11.746;2022-09-20T13:03:46;2.78;;;1.95;;
71869;SDS011;59739;47.696;11.746;2022-09-20T13:08:48;2.60;;;1.58;;
71869;SDS011;59739;47.696;11.746;2022-09-20T13:17:02;4.03;;;1.88;;
71869;SDS011;59739;47.696;11.746;2022-09-20T13:19:44;2.70;;;1.90;;
71869;SDS011;59739;47.696;11.746;2022-09-20T13:22:13;4.90;;;2.25;;
71869;SDS011;59739;47.696;11.746;2022-09-20T13:24:50;2.13;;;1.90;;
71869;SDS011;59739;47.696;11.746;2022-09-20T13:27:34;4.50;;;1.93;;
71869;SDS011;59739;47.696;11.746;2022-09-20T13:30:26;2.15;;;1.60;;
71869;SDS011;59739;47.696;11.746;2022-09-20T13:33:12;4.53;;;2.08;;
71869;SDS011;59739;47.696;11.746;2022-09-20T13:38:21;4.57;;;2.20;;
71869;SDS011;59739;47.696;11.746;2022-09-20T13:40:51;5.53;;;2.10;;
71869;SDS011;59739;47.696;11.746;2022-09-20T13:43:40;2.03;;;1.90;;
71869;SDS011;59739;47.696;11.746;2022-09-20T13:48:36;4.32;;;2.10;;
71869;SDS011;59739;47.696;11.746;2022-09-20T13:51:16;2.22;;;1.90;;
71869;SDS011;59739;47.696;11.746;2022-09-20T13:53:51;2.95;;;1.80;;
71869;SDS011;59739;47.696;11.746;2022-09-20T13:58:48;2.58;;;2.25;;
71869;SDS011;59739;47.696;11.746;2022-09-20T14:01:23;2.25;;;1.92;;
71869;SDS011;59739;47.696;11.746;2022-09-20T14:03:53;4.50;;;2.28;;
71869;SDS011;59739;47.696;11.746;2022-09-20T14:06:33;3.38;;;2.15;;
71869;SDS011;59739;47.696;11.746;2022-09-20T14:09:00;4.18;;;2.20;;
71869;SDS011;59739;47.696;11.746;2022-09-20T14:11:30;4.57;;;2.30;;
71869;SDS011;59739;47.696;11.746;2022-09-20T14:13:59;6.28;;;2.75;;
71869;SDS011;59739;47.696;11.746;2022-09-20T14:16:28;3.60;;;1.95;;
71869;SDS011;59739;47.696;11.746;2022-09-20T14:18:57;5.15;;;2.30;;
71869;SDS011;59739;47.696;11.746;2022-09-20T14:21:26;4.03;;;2.20;;
71869;SDS011;59739;47.696;11.746;2022-09-20T14:26:32;4.82;;;2.17;;
71869;SDS011;59739;47.696;11.746;2022-09-20T14:34:58;3.38;;;2.30;;
71869;SDS011;59739;47.696;11.746;2022-09-20T14:37:34;3.72;;;2.13;;
71869;SDS011;59739;47.696;11.746;2022-09-20T14:42:50;2.75;;;1.98;;
71869;SDS011;59739;47.696;11.746;2022-09-20T14:48:04;4.35;;;1.83;;
71869;SDS011;59739;47.696;11.746;2022-09-20T14:51:18;3.70;;;1.98;;
71869;SDS011;59739;47.696;11.746;2022-09-20T14:54:35;4.00;;;1.90;;
71869;SDS011;59739;47.696;11.746;2022-09-20T14:56:36;3.00;;;1.80;;
71869;SDS011;59739;47.696;11.746;2022-09-20T15:01:43;3.22;;;2.17;;
71869;SDS011;59739;47.696;11.746;2022-09-20T15:04:18;4.00;;;2.17;;
71869;SDS011;59739;47.696;11.746;2022-09-20T15:06:49;3.30;;;1.95;;
71869;SDS011;59739;47.696;11.746;2022-09-20T15:09:16;6.00;;;2.00;;
71869;SDS011;59739;47.696;11.746;2022-09-20T15:11:44;3.35;;;2.05;;
71869;SDS011;59739;47.696;11.746;2022-09-20T15:14:10;3.40;;;1.98;;
71869;SDS011;59739;47.696;11.746;2022-09-20T15:16:36;6.53;;;2.22;;
71869;SDS011;59739;47.696;11.746;2022-09-20T15:19:03;3.72;;;2.10;;
71869;SDS011;59739;47.696;11.746;2022-09-20T15:21:30;4.60;;;1.92;;
71869;SDS011;59739;47.696;11.746;2022-09-20T15:23:56;2.53;;;1.80;;
71869;SDS011;59739;47.696;11.746;2022-09-20T15:26:22;5.18;;;2.22;;
71869;SDS011;59739;47.696;11.746;2022-09-20T15:28:48;5.38;;;2.20;;
71869;SDS011;59739;47.696;11.746;2022-09-20T15:31:14;5.15;;;2.03;;
71869;SDS011;59739;47.696;11.746;2022-09-20T15:33:41;5.05;;;1.85;;
71869;SDS011;59739;47.696;11.746;2022-09-20T15:36:07;3.63;;;1.95;;
71869;SDS011;59739;47.696;11.746;2022-09-20T15:38:34;3.80;;;1.90;;
71869;SDS011;59739;47.696;11.746;2022-09-20T15:41:00;3.55;;;1.73;;
71869;SDS011;59739;47.696;11.746;2022-09-20T15:43:31;6.32;;;2.10;;
71869;SDS011;59739;47.696;11.746;2022-09-20T15:46:15;3.08;;;1.70;;
71869;SDS011;59739;47.696;11.746;2022-09-20T15:48:46;4.32;;;1.88;;
71869;SDS011;59739;47.696;11.746;2022-09-20T15:51:16;6.65;;;3.85;;
71869;SDS011;59739;47.696;11.746;2022-09-20T15:56:31;6.00;;;2.38;;
71869;SDS011;59739;47.696;11.746;2022-09-20T15:59:01;2.88;;;2.03;;
71869;SDS011;59739;47.696;11.746;2022-09-20T16:01:34;4.78;;;1.77;;
71869;SDS011;59739;47.696;11.746;2022-09-20T16:06:37;3.75;;;1.90;;
71869;SDS011;59739;47.696;11.746;2022-09-20T16:09:05;2.47;;;1.70;;
71869;SDS011;59739;47.696;11.746;2022-09-20T16:11:32;4.25;;;2.78;;
71869;SDS011;59739;47.696;11.746;2022-09-20T16:13:59;3.80;;;3.50;;
71869;SDS011;59739;47.696;11.746;2022-09-20T16:16:27;7.00;;;3.70;;
71869;SDS011;59739;47.696;11.746;2022-09-20T16:18:54;8.27;;;3.30;;
71869;SDS011;59739;47.696;11.746;2022-09-20T16:21:40;3.50;;;2.80;;
71869;SDS011;59739;47.696;11.746;2022-09-20T16:24:08;4.63;;;2.75;;
71869;SDS011;59739;47.696;11.746;2022-09-20T16:26:36;3.63;;;2.83;;
71869;SDS011;59739;47.696;11.746;2022-09-20T16:29:03;4.38;;;2.72;;
71869;SDS011;59739;47.696;11.746;2022-09-20T16:31:35;4.15;;;2.08;;
71869;SDS011;59739;47.696;11.746;2022-09-20T16:34:15;2.83;;;2.05;;
71869;SDS011;59739;47.696;11.746;2022-09-20T16:36:49;4.15;;;1.95;;
71869;SDS011;59739;47.696;11.746;2022-09-20T16:39:18;5.85;;;2.08;;
71869;SDS011;59739;47.696;11.746;2022-09-20T16:41:51;2.95;;;2.00;;
71869;SDS011;59739;47.696;11.746;2022-09-20T16:44:21;3.00;;;2.13;;
71869;SDS011;59739;47.696;11.746;2022-09-20T16:46:48;3.95;;;2.40;;
71869;SDS011;59739;47.696;11.746;2022-09-20T16:49:14;4.07;;;2.03;;
71869;SDS011;59739;47.696;11.746;2022-09-20T16:51:41;4.22;;;2.38;;
71869;SDS011;59739;47.696;11.746;2022-09-20T16:54:09;4.55;;;3.50;;
71869;SDS011;59739;47.696;11.746;2022-09-20T16:56:41;7.65;;;3.45;;
71869;SDS011;59739;47.696;11.746;2022-09-20T16:59:09;5.05;;;3.05;;
71869;SDS011;59739;47.696;11.746;2022-09-20T17:01:37;5.10;;;3.28;;
71869;SDS011;59739;47.696;11.746;2022-09-20T17:04:05;5.25;;;3.47;;
71869;SDS011;59739;47.696;11.746;2022-09-20T17:06:32;5.72;;;3.78;;
71869;SDS011;59739;47.696;11.746;2022-09-20T17:09:02;4.18;;;3.38;;
71869;SDS011;59739;47.696;11.746;2022-09-20T17:11:31;7.32;;;3.90;;
71869;SDS011;59739;47.696;11.746;2022-09-20T17:14:01;4.53;;;3.92;;
71869;SDS011;59739;47.696;11.746;2022-09-20T17:16:32;6.13;;;4.15;;
71869;SDS011;59739;47.696;11.746;2022-09-20T17:19:07;6.30;;;4.30;;
71869;SDS011;59739;47.696;11.746;2022-09-20T17:21:36;7.93;;;4.53;;
71869;SDS011;59739;47.696;11.746;2022-09-20T17:24:10;5.55;;;4.88;;
71869;SDS011;59739;47.696;11.746;2022-09-20T17:26:39;8.88;;;4.75;;
71869;SDS011;59739;47.696;11.746;2022-09-20T17:29:08;6.63;;;3.90;;
71869;SDS011;59739;47.696;11.746;2022-09-20T17:31:39;3.83;;;3.47;;
71869;SDS011;59739;47.696;11.746;2022-09-20T17:34:10;5.82;;;3.15;;
71869;SDS011;59739;47.696;11.746;2022-09-20T17:36:43;2.88;;;2.53;;
71869;SDS011;59739;47.696;11.746;2022-09-20T17:39:11;6.18;;;3.25;;
71869;SDS011;59739;47.696;11.746;2022-09-20T17:41:39;8.50;;;3.30;;
71869;SDS011;59739;47.696;11.746;2022-09-20T17:44:07;3.90;;;2.80;;
71869;SDS011;59739;47.696;11.746;2022-09-20T17:46:34;3.80;;;2.78;;
71869;SDS011;59739;47.696;11.746;2022-09-20T17:49:03;3.22;;;2.75;;
71869;SDS011;59739;47.696;11.746;2022-09-20T17:51:34;9.13;;;5.20;;
71869;SDS011;59739;47.696;11.746;2022-09-20T17:54:02;13.45;;;9.98;;
71869;SDS011;59739;47.696;11.746;2022-09-20T17:56:29;12.85;;;7.35;;
71869;SDS011;59739;47.696;11.746;2022-09-20T17:59:02;10.45;;;7.82;;
71869;SDS011;59739;47.696;11.746;2022-09-20T18:01:30;9.05;;;6.68;;
71869;SDS011;59739;47.696;11.746;2022-09-20T18:03:59;8.32;;;7.25;;
71869;SDS011;59739;47.696;11.746;2022-09-20T18:06:27;9.30;;;5.47;;
71869;SDS011;59739;47.696;11.746;2022-09-20T18:08:56;9.38;;;5.60;;
71869;SDS011;59739;47.696;11.746;2022-09-20T18:11:30;7.75;;;5.43;;
71869;SDS011;59739;47.696;11.746;2022-09-20T18:14:25;5.70;;;4.80;;
71869;SDS011;59739;47.696;11.746;2022-09-20T18:16:52;5.90;;;4.60;;
71869;SDS011;59739;47.696;11.746;2022-09-20T18:19:22;8.02;;;4.53;;
71869;SDS011;59739;47.696;11.746;2022-09-20T18:21:48;6.20;;;4.63;;
71869;SDS011;59739;47.696;11.746;2022-09-20T18:42:45;7.18;;;5.55;;
71869;SDS011;59739;47.696;11.746;2022-09-20T18:45:19;8.45;;;5.15;;
71869;SDS011;59739;47.696;11.746;2022-09-20T18:47:48;7.50;;;5.32;;
71869;SDS011;59739;47.696;11.746;2022-09-20T18:50:15;6.03;;;4.75;;
71869;SDS011;59739;47.696;11.746;2022-09-20T18:52:41;5.18;;;4.20;;
71869;SDS011;59739;47.696;11.746;2022-09-20T18:55:07;5.10;;;4.00;;
71869;SDS011;59739;47.696;11.746;2022-09-20T18:57:33;7.97;;;4.07;;
71869;SDS011;59739;47.696;11.746;2022-09-20T19:00:00;8.07;;;4.85;;
71869;SDS011;59739;47.696;11.746;2022-09-20T19:02:32;7.03;;;4.13;;
71869;SDS011;59739;47.696;11.746;2022-09-20T19:05:23;4.47;;;3.67;;
71869;SDS011;59739;47.696;11.746;2022-09-20T19:08:09;6.65;;;3.63;;
71869;SDS011;59739;47.696;11.746;2022-09-20T19:10:48;5.30;;;3.60;;
71869;SDS011;59739;47.696;11.746;2022-09-20T19:16:05;4.68;;;3.13;;
71869;SDS011;59739;47.696;11.746;2022-09-20T19:28:11;6.35;;;3.42;;
71869;SDS011;59739;47.696;11.746;2022-09-20T19:30:40;4.30;;;3.20;;
71869;SDS011;59739;47.696;11.746;2022-09-20T19:33:16;5.88;;;3.90;;
71869;SDS011;59739;47.696;11.746;2022-09-20T19:35:52;6.35;;;3.70;;
71869;SDS011;59739;47.696;11.746;2022-09-20T19:38:25;6.97;;;3.70;;
71869;SDS011;59739;47.696;11.746;2022-09-20T19:43:32;6.00;;;4.15;;
71869;SDS011;59739;47.696;11.746;2022-09-20T19:49:22;4.53;;;3.72;;
71869;SDS011;59739;47.696;11.746;2022-09-20T19:52:11;3.85;;;3.40;;
71869;SDS011;59739;47.696;11.746;2022-09-20T19:54:38;5.85;;;3.42;;
71869;SDS011;59739;47.696;11.746;2022-09-20T19:57:08;3.58;;;2.85;;
71869;SDS011;59739;47.696;11.746;2022-09-20T19:59:43;4.45;;;2.80;;
71869;SDS011;59739;47.696;11.746;2022-09-20T20:02:10;6.28;;;3.30;;
71869;SDS011;59739;47.696;11.746;2022-09-20T20:04:36;4.88;;;2.58;;
71869;SDS011;59739;47.696;11.746;2022-09-20T20:16:00;5.55;;;3.30;;
71869;SDS011;59739;47.696;11.746;2022-09-20T20:25:00;4.50;;;3.22;;
71869;SDS011;59739;47.696;11.746;2022-09-20T20:27:26;6.18;;;3.65;;
71869;SDS011;59739;47.696;11.746;2022-09-20T20:29:52;6.07;;;3.58;;
71869;SDS011;59739;47.696;11.746;2022-09-20T20:32:19;5.57;;;3.20;;
71869;SDS011;59739;47.696;11.746;2022-09-20T20:34:46;4.32;;;3.13;;
71869;SDS011;59739;47.696;11.746;2022-09-20T20:37:13;4.38;;;3.30;;
71869;SDS011;59739;47.696;11.746;2022-09-20T20:39:40;4.68;;;2.67;;
71869;SDS011;59739;47.696;11.746;2022-09-20T20:42:06;3.67;;;2.47;;
71869;SDS011;59739;47.696;11.746;2022-09-20T20:44:34;3.95;;;2.83;;
71869;SDS011;59739;47.696;11.746;2022-09-20T20:47:04;6.32;;;2.80;;
71869;SDS011;59739;47.696;11.746;2022-09-20T20:49:31;4.90;;;2.63;;
71869;SDS011;59739;47.696;11.746;2022-09-20T20:51:57;5.00;;;2.65;;
71869;SDS011;59739;47.696;11.746;2022-09-20T20:54:28;6.03;;;2.83;;
71869;SDS011;59739;47.696;11.746;2022-09-20T20:56:54;6.28;;;2.90;;
71869;SDS011;59739;47.696;11.746;2022-09-20T20:59:20;4.22;;;2.75;;
71869;SDS011;59739;47.696;11.746;2022-09-20T21:01:46;4.10;;;2.55;;
71869;SDS011;59739;47.696;11.746;2022-09-20T21:04:12;5.32;;;2.92;;
71869;SDS011;59739;47.696;11.746;2022-09-20T21:06:40;5.88;;;2.85;;
71869;SDS011;59739;47.696;11.746;2022-09-20T21:09:07;4.60;;;2.80;;
71869;SDS011;59739;47.696;11.746;2022-09-20T21:11:35;4.90;;;2.85;;
71869;SDS011;59739;47.696;11.746;2022-09-20T21:14:03;3.60;;;2.40;;
71869;SDS011;59739;47.696;11.746;2022-09-20T21:16:35;4.18;;;2.72;;
71869;SDS011;59739;47.696;11.746;2022-09-20T21:19:04;3.33;;;2.80;;